Historyczne dane pomiarowe

Dodano dane terminowe – wersja testowa.

Dane z okresu 1951-2019

Wersja bazy: 1.34 [2019-03-16, lista zmian], aktualizacja planowana na 2019-04-15

Dane meteo z obszaru Polski uzyskane na podstawie danych udostępnionych przez Instytut Meteorologii i Gospodarki Wodnej – Państwowy Instytut Badawczy.

 

Wybierz Datę:    

       

TemperaturaWilgotnośćWiatrCiśnienieOpadyŚniegCzas trwania zjawisk
 Stacja t tx tn tng RH VA  wxwx mslp ppp RRR   cm mm wxwxwxwxwxwxwx
1987-08-14 15.0 19.0 10.5 7.6 76.0- 7.3 3.7---- 5.6------------
1987-08-13 13.5 19.5 8.7 7.9 80.3- 6.7 2.0---- 0.0------------
1987-08-12 12.3 17.3 9.3 8.1 86.3- 6.3 3.3---- 1.0------------
1987-08-11 12.0 15.3 9.7 11.5 88.3- 6.0 1.3---- 11.5------------
1987-08-10 12.6 16.0 10.9 12.0 87.3- 6.0 3.0---- 7.5------------
1987-08-09 14.9 20.6 10.9 8.9 76.5- 3.7 2.3---- 12.0------------
1987-08-08 14.1 20.8 6.3 3.9 68.3- 2.7 3.3---- 0.3------------
1987-08-07 12.8 17.5 8.0 7.6 72.0- 4.0 6.0---- 0.0------------
1987-08-06 10.9 14.7 10.1 9.8 89.0- 5.0 8.0---- 4.0------------
1987-08-05 11.1 15.3 8.3 6.8 82.8- 7.3 5.0---- 0.5------------
1987-08-04 12.4 15.7 9.7 6.8 84.5- 4.3 3.0---- 2.0------------
1987-08-03 12.9 17.2 8.7 8.4 78.5- 5.3 4.0---- 9.2------------
1987-08-02 13.6 18.2 9.2 7.9 76.5- 4.3 6.3---- 0.4------------
1987-08-01 14.7 16.5 12.9 12.2 89.0- 7.3 2.3---- 1.0------------
1987-07-31 15.8 19.0 13.7 13.7 78.0- 7.0 2.0---- 1.2------------
1987-07-30 14.6 19.5 9.1 6.8 81.8- 7.7 1.0---- 6.2------------
1987-07-29 13.9 18.0 11.6 11.0 76.8- 6.7 3.3---- 0.0------------
1987-07-28 13.7 19.2 11.1 10.5 81.5- 5.3 4.3---- 0.7------------
1987-07-27 11.4 15.3 8.7 7.6 80.3- 6.7 7.0---- 2.0------------
1987-07-26 12.9 17.0 9.2 7.4 69.5- 5.3 5.0---- 0.7------------
1987-07-25 16.4 20.0 13.7 13.0 73.0- 6.3 5.0---- 0.0------------
1987-07-24 19.5 24.0 14.3 15.5 74.5- 2.7 3.7---- 0.0------------
1987-07-23 19.4 25.0 14.2 12.5 77.8- 3.3 1.0---- 4.0------------
1987-07-22 18.9 24.6 13.7 11.9 82.8- 4.3 1.7---- 0.0------------
1987-07-21 18.0 23.5 11.6 11.5 77.5- 1.3 1.7---- 0.0------------
1987-07-20 16.3 19.6 14.7 15.0 93.3- 8.0 1.7---- 6.0------------
1987-07-19 18.5 25.5 15.7 14.7 84.0- 7.7 4.3---- 11.5------------
1987-07-18 20.5 25.6 16.7 16.2 74.5- 5.3 3.0---- 0.0------------
1987-07-17 19.3 25.0 13.0 10.6 65.3- 4.7 7.7---- 0.0------------
1987-07-16 17.1 22.2 10.3 8.9 67.0- 3.7 3.7---- 0.0------------
1987-07-15 15.6 21.5 6.7 5.2 67.0- 1.3 2.0---- 0.0------------
1987-07-14 15.7 19.5 12.3 10.5 65.3- 2.0 6.0---- 0.0------------
1987-07-13 14.2 17.5 11.5 10.4 78.5- 6.3 4.3---- 2.1------------
1987-07-12 15.8 19.0 11.5 10.9 88.0- 6.0 2.3---- 7.1------------
1987-07-11 11.8 14.7 9.1 7.4 83.5- 8.0 2.0---- 6.0------------
1987-07-10 11.8 16.0 9.3 8.8 74.0- 6.3 7.0---- 3.0------------
1987-07-09 15.9 20.0 14.1 14.8 75.0- 8.0 1.7---- 0.6------------
1987-07-08 20.2 28.1 15.2 11.4 68.5- 2.7 6.3---- 12.8------------
1987-07-07 19.5 26.8 12.7 10.0 60.0- 1.7 2.3---- 0.0------------
1987-07-06 16.7 24.6 7.2 5.5 61.5- 0.0 1.3---- 0.0------------
1987-07-05 15.7 20.4 9.4 7.8 66.5- 0.0 2.7---- 0.0------------
1987-07-04 14.5 20.1 12.0 11.5 71.8- 6.3 4.0---- 0.0------------
1987-07-03 15.5 20.5 7.2 5.8 66.5- 3.7 2.3---- 0.0------------
1987-07-02 16.8 22.0 10.7 10.0 70.0- 3.0 2.3---- 0.0------------
1987-07-01 23.1 30.2 16.7 17.0 75.0- 4.0 3.0---- 6.7------------
1987-06-30 23.3 28.5 17.2 17.0 76.8- 1.7 3.3---- 0.0------------
1987-06-29 15.9 22.5 9.2 7.4 79.3- 6.7 2.3---- 0.0------------
1987-06-28 15.0 18.5 12.0 10.5 79.0- 5.7 1.3---- 2.0------------
1987-06-27 16.5 20.2 13.7 11.4 69.0- 5.3 2.3---- 1.0------------
1987-06-26 15.3 20.0 8.7 6.4 72.3- 3.3 2.7---- 0.3------------
1987-06-25 12.9 18.0 10.5 10.0 73.0- 6.3 4.0---- 0.8------------
1987-06-24 14.7 19.0 11.4 10.2 85.0- 6.7 2.7---- 1.0------------
1987-06-23 13.6 18.3 10.7 10.5 84.5- 7.3 1.3---- 1.5------------
1987-06-22 16.5 21.5 11.7 10.0 76.8- 6.3 4.0---- 0.0------------
1987-06-21 19.0 24.2 10.7 7.9 60.5- 2.7 2.3---- 0.0------------
1987-06-20 15.7 21.5 7.7 5.3 65.3- 3.7 3.0---- 0.0------------
1987-06-19 12.1 16.0 7.9 7.3 74.0- 6.7 4.7---- 0.3------------
1987-06-18 10.4 16.0 6.2 4.2 75.5- 6.0 3.3---- 1.2------------
1987-06-17 11.5 14.7 10.2 10.0 72.0- 6.7 4.0---- 0.0------------
1987-06-16 11.9 18.0 9.2 10.2 91.8- 8.0 7.7---- 7.3------------
1366.5 ms

 

Źródłem pochodzenia danych jest Instytut Meteorologii i Gospodarki Wodnej – Państwowy Instytut Badawczy. Dane Instytutu Meteorologii i Gospodarki Wodnej – Państwowego Instytutu Badawczego zostały przetworzone.

Dane źródłowe można odnaleźć na stronie https://dane.imgw.pl